createdAt,value
2022-12-15T00:01:58.234Z,41.90
2022-12-15T00:05:02.099Z,41.20
2022-12-15T00:08:05.743Z,39.97
2022-12-15T00:11:09.645Z,39.65
2022-12-15T00:14:13.516Z,41.00
2022-12-15T00:17:17.501Z,39.53
2022-12-15T00:20:21.885Z,39.10
2022-12-15T00:23:30.975Z,39.40
2022-12-15T00:26:35.435Z,39.38
2022-12-15T00:29:39.270Z,38.80
2022-12-15T00:32:43.061Z,40.13
2022-12-15T00:35:47.126Z,39.50
2022-12-15T00:38:44.401Z,39.53
2022-12-15T00:41:29.842Z,39.17
2022-12-15T00:44:20.390Z,39.22
2022-12-15T00:47:06.192Z,39.55
2022-12-15T00:50:10.015Z,39.08
2022-12-15T00:53:13.899Z,40.30
2022-12-15T00:56:17.713Z,38.83
2022-12-15T00:59:21.804Z,39.55
2022-12-15T01:02:25.987Z,38.63
2022-12-15T01:05:30.082Z,39.13
2022-12-15T01:08:33.954Z,39.42
2022-12-15T01:11:37.945Z,38.90
2022-12-15T01:14:42.435Z,39.65
2022-12-15T01:17:46.166Z,38.42
2022-12-15T01:20:34.490Z,39.00
2022-12-15T01:23:27.190Z,38.37
2022-12-15T01:26:17.217Z,38.55
2022-12-15T01:29:05.560Z,39.78
2022-12-15T01:31:51.620Z,40.08
2022-12-15T01:34:37.139Z,39.33
2022-12-15T01:37:22.497Z,39.00
2022-12-15T01:40:30.099Z,39.25
2022-12-15T01:43:37.015Z,40.20
2022-12-15T01:46:24.575Z,39.47
2022-12-15T01:49:36.052Z,41.55
2022-12-15T01:52:21.473Z,37.50
2022-12-15T01:55:07.196Z,38.40
2022-12-15T01:57:57.363Z,38.38
2022-12-15T02:00:42.920Z,38.83
2022-12-15T02:03:29.716Z,39.78
2022-12-15T02:06:16.592Z,39.50
2022-12-15T02:09:02.448Z,38.78
2022-12-15T02:12:32.047Z,39.80
2022-12-15T02:15:38.837Z,39.13
2022-12-15T02:18:53.484Z,41.55
2022-12-15T02:21:46.723Z,37.40
2022-12-15T02:24:49.823Z,40.05
2022-12-15T02:27:48.564Z,38.80
2022-12-15T02:30:40.084Z,37.85
2022-12-15T02:33:29.995Z,37.40
2022-12-15T02:36:23.615Z,35.65
2022-12-15T02:39:12.072Z,38.85
2022-12-15T02:41:57.393Z,36.63
2022-12-15T02:44:50.581Z,37.10
2022-12-15T02:47:52.476Z,36.97
2022-12-15T02:50:47.112Z,37.30
2022-12-15T02:54:03.203Z,37.13
2022-12-15T02:57:30.153Z,35.95
2022-12-15T03:00:16.965Z,33.90
2022-12-15T03:03:02.096Z,32.90
2022-12-15T03:05:53.180Z,33.80
2022-12-15T03:08:38.233Z,32.33
2022-12-15T03:11:23.701Z,31.98
2022-12-15T03:14:08.871Z,32.08
2022-12-15T03:16:55.036Z,33.03
2022-12-15T03:19:40.077Z,32.28
2022-12-15T03:22:25.492Z,33.20
2022-12-15T03:25:10.516Z,33.03
2022-12-15T03:27:56.027Z,31.88
2022-12-15T03:30:41.052Z,34.28
2022-12-15T03:33:26.246Z,31.67
2022-12-15T03:36:11.742Z,30.63
2022-12-15T03:38:56.792Z,31.00
2022-12-15T03:41:42.478Z,30.63
2022-12-15T03:44:27.518Z,31.88
2022-12-15T03:47:13.022Z,31.02
2022-12-15T03:49:58.321Z,32.10
2022-12-15T03:52:43.928Z,31.02
2022-12-15T03:55:29.849Z,29.83
2022-12-15T03:58:14.909Z,31.08
2022-12-15T04:01:10.458Z,31.48
2022-12-15T04:04:00.497Z,30.63
2022-12-15T04:06:46.114Z,33.38
2022-12-15T04:09:31.269Z,29.58
2022-12-15T04:12:16.654Z,30.27
2022-12-15T04:15:02.063Z,30.80
2022-12-15T04:17:47.379Z,31.15
2022-12-15T04:20:33.126Z,30.88
2022-12-15T04:23:18.446Z,34.65
2022-12-15T04:26:22.249Z,31.25
2022-12-15T04:29:25.936Z,31.20
2022-12-15T04:32:29.580Z,31.67
2022-12-15T04:35:33.534Z,32.17
2022-12-15T04:38:43.936Z,33.10
2022-12-15T04:41:54.283Z,32.50
2022-12-15T04:44:58.069Z,31.85
2022-12-15T04:48:01.878Z,34.05
2022-12-15T04:51:05.607Z,33.85
2022-12-15T04:54:09.293Z,33.33
2022-12-15T04:57:13.170Z,32.47
2022-12-15T05:00:16.875Z,31.15
2022-12-15T05:03:25.207Z,30.10
2022-12-15T05:06:29.120Z,24.65
2022-12-15T05:09:33.117Z,30.60
2022-12-15T05:12:36.966Z,32.28
2022-12-15T05:15:40.859Z,29.65
2022-12-15T05:18:44.502Z,30.60
2022-12-15T05:21:48.194Z,28.45
2022-12-15T05:24:52.270Z,29.77
2022-12-15T05:27:56.158Z,30.77
2022-12-15T05:31:00.296Z,29.73
2022-12-15T05:33:45.306Z,28.20
2022-12-15T05:36:30.743Z,28.05
2022-12-15T05:39:16.375Z,29.52
2022-12-15T05:42:01.766Z,30.48
2022-12-15T05:44:47.115Z,30.85
2022-12-15T05:47:35.801Z,30.08
2022-12-15T05:50:22.833Z,29.75
2022-12-15T05:53:07.881Z,28.75
2022-12-15T05:55:53.133Z,31.27
2022-12-15T05:58:44.771Z,28.73
2022-12-15T06:01:31.554Z,28.88
2022-12-15T06:04:17.044Z,29.63
2022-12-15T06:07:02.116Z,30.45
2022-12-15T06:09:47.009Z,29.50
2022-12-15T06:12:32.435Z,27.48
2022-12-15T06:15:17.923Z,28.05
2022-12-15T06:18:03.364Z,30.15
2022-12-15T06:20:49.590Z,29.30
2022-12-15T06:23:35.398Z,29.80
2022-12-15T06:26:25.425Z,30.52
2022-12-15T06:29:11.980Z,28.48
2022-12-15T06:31:57.298Z,29.08
2022-12-15T06:34:42.566Z,31.63
2022-12-15T06:37:27.902Z,29.70
2022-12-15T06:40:13.113Z,30.00
2022-12-15T06:42:58.444Z,28.85
2022-12-15T06:45:49.924Z,28.33
2022-12-15T06:48:35.932Z,28.25
2022-12-15T06:51:21.358Z,28.25
2022-12-15T06:54:06.565Z,30.10
2022-12-15T06:56:52.171Z,30.95
2022-12-15T06:59:37.738Z,28.80
2022-12-15T07:02:28.668Z,29.45
2022-12-15T07:05:14.569Z,28.05
2022-12-15T07:08:01.179Z,27.63
2022-12-15T07:10:46.635Z,28.95
2022-12-15T07:13:32.283Z,26.95
2022-12-15T07:16:19.424Z,27.35
2022-12-15T07:19:04.971Z,27.75
2022-12-15T07:21:50.450Z,26.05
2022-12-15T07:24:35.876Z,26.25
2022-12-15T07:27:21.301Z,27.85
2022-12-15T07:30:07.552Z,26.83
2022-12-15T07:32:53.194Z,27.85
2022-12-15T07:35:38.302Z,27.10
2022-12-15T07:38:23.608Z,27.83
2022-12-15T07:41:09.822Z,28.42
2022-12-15T07:43:55.422Z,27.02
